createdAt,value
2018-11-29T00:02:10.029Z,102258.69
2018-11-29T00:04:40.707Z,102262.56
2018-11-29T00:07:14.923Z,102251.63
2018-11-29T00:09:48.859Z,102245.34
2018-11-29T00:12:20.590Z,102242.02
2018-11-29T00:14:52.411Z,101937.59
2018-11-29T00:17:24.467Z,102243.05
2018-11-29T00:19:55.263Z,102238.06
2018-11-29T00:22:27.084Z,102241.70
2018-11-29T00:24:58.604Z,102233.97
2018-11-29T00:27:29.631Z,102242.75
2018-11-29T00:29:59.960Z,102243.42
2018-11-29T00:32:32.545Z,102246.59
2018-11-29T00:35:03.684Z,102237.56
2018-11-29T00:37:35.778Z,102234.48
2018-11-29T00:40:19.517Z,102235.04
2018-11-29T00:42:51.581Z,102229.13
2018-11-29T00:45:24.944Z,102240.05
2018-11-29T00:47:56.798Z,102234.84
2018-11-29T00:50:30.097Z,102228.38
2018-11-29T00:53:04.490Z,102233.19
2018-11-29T00:55:33.922Z,102228.98
2018-11-29T00:58:04.255Z,102223.97
2018-11-29T01:00:35.157Z,102226.69
2018-11-29T01:03:05.199Z,102225.31
2018-11-29T01:05:36.545Z,102219.77
2018-11-29T01:08:09.774Z,102222.96
2018-11-29T01:10:43.943Z,102221.11
2018-11-29T01:13:14.515Z,102225.04
2018-11-29T01:15:44.578Z,102223.30
2018-11-29T01:18:18.197Z,102228.69
2018-11-29T01:20:47.631Z,102220.58
2018-11-29T01:23:19.280Z,102220.16
2018-11-29T01:25:50.118Z,102222.63
2018-11-29T01:28:22.395Z,102219.77
2018-11-29T01:30:53.090Z,102215.09
2018-11-29T01:33:25.769Z,102215.42
2018-11-29T01:35:58.626Z,102214.22
2018-11-29T01:38:30.919Z,102188.22
2018-11-29T01:41:01.546Z,102193.73
2018-11-29T01:43:31.817Z,102194.10
2018-11-29T01:46:01.490Z,102187.91
2018-11-29T01:48:32.902Z,102174.57
2018-11-29T01:51:05.572Z,102168.21
2018-11-29T01:53:39.285Z,102168.21
2018-11-29T01:56:10.957Z,102179.41
2018-11-29T01:58:43.029Z,102166.33
2018-11-29T02:01:13.767Z,102161.96
2018-11-29T02:03:43.955Z,102165.96
2018-11-29T02:08:55.198Z,102161.55
2018-11-29T02:11:27.438Z,102148.68
2018-11-29T02:13:56.744Z,102138.96
2018-11-29T02:16:28.915Z,102137.78
2018-11-29T02:18:59.873Z,102131.66
2018-11-29T02:21:31.944Z,102126.70
2018-11-29T02:24:02.148Z,102129.78
2018-11-29T02:26:32.456Z,102132.33
2018-11-29T02:29:04.380Z,102130.95
2018-11-29T02:31:36.550Z,102122.67
2018-11-29T02:34:11.287Z,102125.66
2018-11-29T02:36:42.796Z,102118.59
2018-11-29T02:39:12.981Z,102132.22
2018-11-29T02:41:42.387Z,102132.34
2018-11-29T02:44:13.022Z,102144.54
2018-11-29T02:46:43.287Z,102147.11
2018-11-29T02:49:13.407Z,102140.59
2018-11-29T02:51:44.152Z,102137.14
2018-11-29T02:54:14.209Z,102121.46
2018-11-29T02:56:44.763Z,102124.36
2018-11-29T02:59:15.166Z,102118.39
2018-11-29T03:01:45.382Z,102113.84
2018-11-29T03:04:16.464Z,102111.63
2018-11-29T03:06:47.257Z,102113.34
2018-11-29T03:09:18.131Z,102115.98
2018-11-29T03:11:48.113Z,102116.36
2018-11-29T03:14:18.740Z,102123.23
2018-11-29T03:16:49.270Z,102117.63
2018-11-29T03:19:20.121Z,102118.13
2018-11-29T03:21:51.232Z,102115.73
2018-11-29T03:24:23.284Z,102104.77
2018-11-29T03:26:54.182Z,102108.76
2018-11-29T03:29:24.680Z,102110.73
2018-11-29T03:31:54.950Z,102111.58
2018-11-29T03:34:24.957Z,102102.87
2018-11-29T03:37:57.698Z,102108.34
2018-11-29T03:40:28.227Z,102109.05
2018-11-29T03:42:59.062Z,102108.08
2018-11-29T03:45:30.386Z,102110.77
2018-11-29T03:48:00.733Z,102110.77
2018-11-29T03:50:31.249Z,102110.39
2018-11-29T03:53:01.730Z,102108.83
2018-11-29T03:55:32.668Z,102099.59
2018-11-29T03:58:02.741Z,102099.80
2018-11-29T04:00:33.267Z,102101.44
2018-11-29T04:03:03.368Z,102106.31
2018-11-29T04:05:33.817Z,102100.69
2018-11-29T04:08:04.239Z,102098.58
2018-11-29T04:10:33.831Z,102101.09
2018-11-29T04:13:05.094Z,102102.56
2018-11-29T04:15:35.616Z,102095.00
2018-11-29T04:18:06.775Z,102101.55
2018-11-29T04:20:37.144Z,102093.34
2018-11-29T04:23:07.850Z,102101.51
2018-11-29T04:25:37.412Z,102099.83
2018-11-29T04:28:07.958Z,102104.58
2018-11-29T04:30:38.379Z,102108.23
2018-11-29T04:33:08.609Z,102105.66
2018-11-29T04:35:38.649Z,102107.16
2018-11-29T04:38:09.452Z,102100.16
2018-11-29T04:40:40.487Z,102088.55
2018-11-29T04:43:11.945Z,102082.88
2018-11-29T04:45:52.616Z,102085.69
2018-11-29T04:48:25.856Z,102072.05
2018-11-29T04:50:59.032Z,102068.48
2018-11-29T04:53:30.938Z,102064.83
2018-11-29T04:56:01.587Z,101910.97
2018-11-29T04:58:39.195Z,102065.59
2018-11-29T05:04:08.089Z,102065.95
2018-11-29T05:06:39.326Z,102059.28
2018-11-29T05:09:13.673Z,102058.78
2018-11-29T05:11:44.770Z,102055.58
2018-11-29T05:14:16.034Z,102062.47
2018-11-29T05:16:46.720Z,102056.75
2018-11-29T05:19:20.557Z,102057.88
2018-11-29T05:21:58.541Z,102059.05
2018-11-29T05:24:29.788Z,102048.44
2018-11-29T05:27:01.163Z,102044.34
2018-11-29T05:29:34.176Z,102050.34
2018-11-29T05:32:11.029Z,102048.16
2018-11-29T05:34:41.250Z,102046.05
2018-11-29T05:37:12.431Z,102045.82
2018-11-29T05:39:44.045Z,102045.82
2018-11-29T05:42:13.798Z,102051.26
2018-11-29T05:44:44.786Z,102055.62
2018-11-29T05:47:19.815Z,102047.55
2018-11-29T05:49:52.322Z,102059.95
2018-11-29T05:52:23.001Z,102055.91
2018-11-29T05:54:54.786Z,102054.23
2018-11-29T05:57:25.231Z,102057.59
2018-11-29T05:59:58.550Z,102052.02
2018-11-29T06:02:29.604Z,102046.25
2018-11-29T06:05:01.304Z,102038.96
2018-11-29T06:07:33.252Z,102044.34
2018-11-29T06:10:04.709Z,102038.05
2018-11-29T06:12:37.659Z,102042.38
2018-11-29T06:15:11.640Z,102046.71
2018-11-29T06:17:43.062Z,102049.84
2018-11-29T06:20:17.759Z,102046.97
2018-11-29T06:22:51.567Z,102036.27
2018-11-29T06:25:22.122Z,102031.22
2018-11-29T06:27:53.469Z,102037.72
2018-11-29T06:30:23.858Z,102045.36
2018-11-29T06:32:55.505Z,102040.64
2018-11-29T06:35:26.893Z,102043.66
2018-11-29T06:37:56.841Z,102030.20
2018-11-29T06:40:27.339Z,102042.55
2018-11-29T06:42:56.431Z,102044.27
2018-11-29T06:45:26.660Z,102039.41
2018-11-29T06:47:57.588Z,102023.41
2018-11-29T06:50:34.978Z,102016.02
2018-11-29T06:54:14.428Z,102007.66
2018-11-29T06:56:45.688Z,102002.19
2018-11-29T06:59:14.346Z,102008.05
2018-11-29T07:01:45.284Z,102011.62
2018-11-29T07:04:15.099Z,102017.41
2018-11-29T07:06:46.555Z,102023.08
2018-11-29T07:09:18.418Z,102025.44
2018-11-29T07:11:51.401Z,102019.15
2018-11-29T07:14:22.595Z,102018.77
2018-11-29T07:16:55.738Z,102006.42
2018-11-29T07:19:54.957Z,102013.16
2018-11-29T07:22:27.666Z,102009.11
2018-11-29T07:24:57.415Z,102014.78
2018-11-29T07:27:27.915Z,102011.80
2018-11-29T07:31:02.294Z,102009.52
2018-11-29T07:33:33.004Z,102004.52
2018-11-29T07:36:05.070Z,102005.45
2018-11-29T07:38:37.656Z,102005.30
2018-11-29T07:41:08.513Z,102008.38
2018-11-29T07:43:41.965Z,102008.78
2018-11-29T07:46:12.889Z,102020.48
2018-11-29T07:48:44.058Z,102008.92
2018-11-29T07:51:17.221Z,102011.56
2018-11-29T07:53:49.978Z,102011.56
2018-11-29T07:56:21.782Z,102012.28
2018-11-29T07:58:58.508Z,102015.30
2018-11-29T08:01:30.419Z,102005.70
2018-11-29T08:04:00.470Z,101998.91
2018-11-29T08:06:30.694Z,101995.25
2018-11-29T08:09:01.285Z,101997.80
2018-11-29T08:11:32.649Z,102000.73
2018-11-29T08:14:07.318Z,101992.97
2018-11-29T08:16:37.645Z,101985.30
2018-11-29T08:19:07.595Z,101993.60
2018-11-29T08:21:38.718Z,101981.04
2018-11-29T08:24:09.786Z,101976.89
2018-11-29T08:26:41.903Z,101982.63
2018-11-29T08:29:12.383Z,101967.97
2018-11-29T08:31:45.914Z,101966.70
2018-11-29T08:34:17.641Z,101968.88
2018-11-29T08:36:52.046Z,101971.58
2018-11-29T08:39:23.299Z,101977.16
2018-11-29T08:41:54.604Z,101961.33
2018-11-29T08:44:24.863Z,101971.61
2018-11-29T08:46:55.289Z,101971.77
2018-11-29T08:49:28.107Z,101965.02
2018-11-29T08:51:59.732Z,101966.05
2018-11-29T08:54:30.878Z,101961.49
2018-11-29T08:57:03.396Z,101962.00
2018-11-29T08:59:33.403Z,101970.86
2018-11-29T09:02:06.652Z,101971.19
2018-11-29T09:04:38.511Z,101976.00
2018-11-29T09:07:11.086Z,101963.60
2018-11-29T09:09:45.170Z,101952.99
2018-11-29T09:12:15.967Z,101968.34
2018-11-29T09:14:47.891Z,101965.02
2018-11-29T09:17:21.018Z,101963.59
2018-11-29T09:19:53.646Z,101966.27
2018-11-29T09:22:25.181Z,101964.36
2018-11-29T09:24:57.422Z,101952.08
2018-11-29T09:27:28.419Z,101943.31
2018-11-29T09:29:59.765Z,101948.48
2018-11-29T09:32:31.932Z,101953.62
2018-11-29T09:35:02.563Z,101943.43
2018-11-29T09:37:35.259Z,101935.22
2018-11-29T09:40:06.960Z,101940.41
2018-11-29T09:42:37.327Z,101915.48
2018-11-29T09:45:11.523Z,101919.05
2018-11-29T09:47:41.863Z,101910.84
2018-11-29T09:50:15.557Z,101911.35
2018-11-29T09:52:45.578Z,101908.11
2018-11-29T09:55:20.005Z,101913.03
2018-11-29T09:57:51.033Z,101912.48
2018-11-29T10:00:27.986Z,101910.64
2018-11-29T10:03:10.664Z,101897.86
2018-11-29T10:05:46.372Z,101902.59
2018-11-29T10:08:18.723Z,101892.28
2018-11-29T10:10:49.177Z,101888.65
2018-11-29T10:13:21.418Z,101875.34
2018-11-29T10:15:53.271Z,101862.46
2018-11-29T10:18:25.069Z,101819.34
2018-11-29T10:21:00.906Z,101853.08
2018-11-29T10:23:32.812Z,101829.89
2018-11-29T10:26:03.609Z,101806.27
2018-11-29T10:28:34.651Z,101799.18
2018-11-29T10:31:09.538Z,101830.55
2018-11-29T10:33:41.706Z,101792.11
2018-11-29T10:36:14.317Z,101802.67
2018-11-29T10:38:44.750Z,101804.91
2018-11-29T10:41:22.272Z,101814.00
2018-11-29T10:43:54.922Z,101809.63
2018-11-29T10:46:27.676Z,101811.63
2018-11-29T10:49:00.349Z,101815.45
2018-11-29T10:54:10.925Z,101830.20
2018-11-29T10:56:41.169Z,101830.55
2018-11-29T10:59:14.610Z,101817.52
2018-11-29T11:01:54.859Z,101808.55
2018-11-29T11:04:26.486Z,101823.59
2018-11-29T11:06:57.169Z,101817.05
2018-11-29T11:09:33.500Z,101816.53
2018-11-29T11:12:03.561Z,101808.81
2018-11-29T11:14:36.397Z,101801.67
2018-11-29T11:17:10.270Z,101797.20
2018-11-29T11:19:47.187Z,101795.72
2018-11-29T11:22:23.631Z,101793.19
2018-11-29T11:24:54.672Z,101789.50
2018-11-29T11:27:28.298Z,101792.44
2018-11-29T11:30:02.833Z,101805.59
2018-11-29T11:32:33.756Z,101811.65
2018-11-29T11:35:07.519Z,101806.53
2018-11-29T11:37:38.464Z,101801.43
2018-11-29T11:40:11.137Z,101788.52
2018-11-29T11:42:42.513Z,101785.97
2018-11-29T11:45:19.098Z,101786.70
2018-11-29T11:47:52.759Z,101784.45
2018-11-29T11:50:30.574Z,101778.50
2018-11-29T11:53:03.910Z,101778.55
2018-11-29T11:55:37.989Z,101769.94
2018-11-29T11:58:10.962Z,101758.70
2018-11-29T12:00:45.724Z,101758.45
2018-11-29T12:03:18.764Z,101754.71
2018-11-29T12:05:53.401Z,101750.31
2018-11-29T12:08:29.488Z,101759.66
2018-11-29T12:11:08.897Z,101752.19
2018-11-29T12:13:39.004Z,101750.53
2018-11-29T12:16:10.819Z,101746.53
2018-11-29T12:18:47.038Z,101738.52
2018-11-29T12:21:19.895Z,101739.72
2018-11-29T12:23:51.405Z,101745.77
2018-11-29T12:26:24.760Z,101732.52
2018-11-29T12:28:58.258Z,101736.08
2018-11-29T12:31:33.468Z,101750.23
2018-11-29T12:34:06.685Z,101744.88
2018-11-29T12:36:38.479Z,101741.81
2018-11-29T12:39:11.497Z,101738.46
2018-11-29T12:41:51.633Z,101731.13
2018-11-29T12:44:22.955Z,101714.94
2018-11-29T12:46:59.126Z,101714.77
2018-11-29T12:49:30.492Z,101712.58
2018-11-29T12:52:07.284Z,101709.87
2018-11-29T12:54:38.360Z,101705.52
2018-11-29T12:57:17.098Z,101705.33
2018-11-29T12:59:50.605Z,101697.25
2018-11-29T13:02:29.557Z,101696.36
2018-11-29T13:05:02.543Z,101698.94
2018-11-29T13:07:35.203Z,101695.52
2018-11-29T13:10:12.020Z,101704.70
2018-11-29T13:12:48.618Z,101700.50
2018-11-29T13:15:28.822Z,101699.95
2018-11-29T13:18:14.458Z,101698.92
2018-11-29T13:23:42.720Z,101685.14
2018-11-29T13:26:14.705Z,101684.28
2018-11-29T13:28:49.050Z,101681.29
2018-11-29T13:31:20.568Z,101660.91
2018-11-29T13:33:52.638Z,101679.42
2018-11-29T13:36:27.960Z,101685.52
2018-11-29T13:38:59.408Z,101677.38
2018-11-29T13:41:33.141Z,101672.32
2018-11-29T13:44:05.504Z,101670.59
2018-11-29T13:46:41.678Z,101667.71
2018-11-29T13:49:15.691Z,101658.37
2018-11-29T13:51:59.535Z,101670.83
2018-11-29T13:54:30.972Z,101648.41
2018-11-29T13:57:03.698Z,101644.41
2018-11-29T13:59:37.913Z,101647.73
2018-11-29T14:02:09.810Z,101642.83
2018-11-29T14:04:45.069Z,101629.08
2018-11-29T14:10:05.395Z,101626.98
2018-11-29T14:12:38.724Z,101617.23
2018-11-29T14:15:28.974Z,101611.08
2018-11-29T14:18:05.824Z,101613.69
2018-11-29T14:20:42.095Z,101612.64
2018-11-29T14:23:16.043Z,101623.86
2018-11-29T14:25:49.695Z,101634.91
2018-11-29T14:28:22.375Z,101643.50
2018-11-29T14:30:56.895Z,101653.72
2018-11-29T14:33:28.431Z,101651.53
2018-11-29T14:36:06.689Z,101633.75
2018-11-29T14:38:45.493Z,101640.98
2018-11-29T14:41:21.034Z,101629.83
2018-11-29T14:43:55.601Z,101626.22
2018-11-29T14:46:28.449Z,101620.02
2018-11-29T14:49:05.253Z,101620.64
2018-11-29T14:51:39.619Z,101615.43
2018-11-29T14:54:11.181Z,101624.37
2018-11-29T14:56:44.168Z,101622.25
2018-11-29T14:59:19.401Z,101627.50
2018-11-29T15:01:53.043Z,101620.66
2018-11-29T15:04:26.836Z,101617.80
2018-11-29T15:07:01.756Z,101618.98
2018-11-29T15:09:38.723Z,101615.55
2018-11-29T15:12:13.958Z,101620.24
2018-11-29T15:14:47.031Z,101624.62
2018-11-29T15:17:21.312Z,101629.14
2018-11-29T15:19:52.201Z,101610.52
2018-11-29T15:22:24.712Z,101619.45
2018-11-29T15:24:58.580Z,101613.36
2018-11-29T15:27:33.007Z,101629.72
2018-11-29T15:30:08.649Z,101623.51
2018-11-29T15:32:39.617Z,101624.93
2018-11-29T15:35:11.122Z,101630.28
2018-11-29T15:37:45.053Z,101631.91
2018-11-29T15:40:25.136Z,101625.66
2018-11-29T15:42:57.213Z,101622.27
2018-11-29T15:45:29.734Z,101620.48
2018-11-29T15:48:06.407Z,101622.72
2018-11-29T15:50:39.307Z,101615.73
2018-11-29T15:53:15.574Z,101615.21
2018-11-29T15:55:46.548Z,101622.33
2018-11-29T15:58:20.918Z,101619.03
2018-11-29T16:00:58.651Z,101622.78
2018-11-29T16:03:34.614Z,101624.11
2018-11-29T16:06:20.846Z,101625.45
2018-11-29T16:08:53.536Z,101629.97
2018-11-29T16:12:25.820Z,101626.43
2018-11-29T16:14:58.391Z,101616.74
2018-11-29T16:17:37.935Z,101615.14
2018-11-29T16:20:17.493Z,101609.34
2018-11-29T16:22:58.504Z,101604.98
2018-11-29T16:25:31.840Z,101607.82
2018-11-29T16:28:08.515Z,101610.15
2018-11-29T16:30:51.845Z,101602.83
2018-11-29T16:33:27.396Z,101609.21
2018-11-29T16:36:19.282Z,101601.02
2018-11-29T16:38:53.731Z,101594.94
2018-11-29T16:41:35.338Z,101591.95
2018-11-29T16:44:15.320Z,101584.42
2018-11-29T16:46:52.565Z,101584.88
2018-11-29T16:49:27.902Z,101578.83
2018-11-29T16:52:03.762Z,101578.87
2018-11-29T16:54:34.988Z,101565.37
2018-11-29T16:57:10.446Z,101561.69
2018-11-29T16:59:46.128Z,101555.83
2018-11-29T17:02:19.168Z,101539.66
2018-11-29T17:04:54.897Z,101549.09
2018-11-29T17:07:31.185Z,101558.95
2018-11-29T17:10:04.381Z,101560.51
2018-11-29T17:12:46.520Z,101562.94
2018-11-29T17:15:33.599Z,101554.22
2018-11-29T17:18:12.851Z,101540.70
2018-11-29T17:20:47.546Z,101542.57
2018-11-29T17:23:22.537Z,101546.24
2018-11-29T17:25:54.106Z,101544.72
2018-11-29T17:28:29.086Z,101535.94
2018-11-29T17:31:08.068Z,101528.92
2018-11-29T17:33:45.905Z,101527.75
2018-11-29T17:36:18.676Z,101539.30
2018-11-29T17:38:50.849Z,101544.27
2018-11-29T17:41:27.338Z,101537.73
2018-11-29T17:44:01.723Z,101538.40
2018-11-29T17:46:34.021Z,101538.40
2018-11-29T17:49:11.973Z,101530.17
2018-11-29T17:51:47.955Z,101540.92
2018-11-29T17:54:21.969Z,101533.09
2018-11-29T17:56:55.760Z,101526.25
2018-11-29T17:59:35.141Z,101538.63
2018-11-29T18:02:13.429Z,101531.38
2018-11-29T18:04:52.753Z,101534.50
2018-11-29T18:07:30.272Z,101528.16
2018-11-29T18:10:29.004Z,101527.97
2018-11-29T18:13:24.765Z,101522.77
2018-11-29T18:16:08.508Z,101522.59
2018-11-29T18:18:41.287Z,101521.05
2018-11-29T18:21:15.626Z,101515.55
2018-11-29T18:23:49.399Z,101513.67
2018-11-29T18:26:31.780Z,101510.86
2018-11-29T18:29:17.313Z,101506.41
2018-11-29T18:31:49.495Z,101509.41
2018-11-29T18:34:26.287Z,101506.70
2018-11-29T18:36:59.419Z,101500.59
2018-11-29T18:39:36.822Z,101506.64
2018-11-29T18:42:20.377Z,101502.52
2018-11-29T18:44:56.466Z,101492.22
2018-11-29T18:47:28.451Z,101491.72
2018-11-29T18:50:00.242Z,101481.73
2018-11-29T18:52:36.375Z,101484.13
2018-11-29T18:55:12.730Z,101490.05
2018-11-29T18:57:51.531Z,101483.63
2018-11-29T19:00:30.525Z,101482.80
2018-11-29T19:03:19.448Z,101481.06
2018-11-29T19:05:57.508Z,101477.52
2018-11-29T19:08:35.107Z,101471.73
2018-11-29T19:11:13.986Z,101474.97
2018-11-29T19:13:49.858Z,101470.08
2018-11-29T19:16:22.927Z,101472.27
2018-11-29T19:19:01.514Z,101470.84
2018-11-29T19:21:42.749Z,101461.27
2018-11-29T19:24:26.082Z,101457.33
2018-11-29T19:27:09.617Z,101472.08
2018-11-29T19:29:43.974Z,101467.11
2018-11-29T19:32:26.746Z,101459.23
2018-11-29T19:35:00.342Z,101463.39
2018-11-29T19:37:48.073Z,101460.37
2018-11-29T19:40:31.137Z,101459.98
2018-11-29T19:43:08.730Z,101453.75
2018-11-29T19:45:42.007Z,101447.52
2018-11-29T19:48:28.027Z,101448.05
2018-11-29T19:51:06.533Z,101447.64
2018-11-29T19:53:48.179Z,101441.81
2018-11-29T19:56:35.244Z,101445.16
2018-11-29T19:59:22.432Z,101439.34
2018-11-29T20:01:57.160Z,101441.73
2018-11-29T20:04:33.099Z,101442.58
2018-11-29T20:07:11.437Z,101436.02
2018-11-29T20:09:50.320Z,101437.69
2018-11-29T20:12:24.214Z,101435.63
2018-11-29T20:15:10.365Z,101429.20
2018-11-29T20:17:46.207Z,101426.90
2018-11-29T20:20:26.529Z,101426.90
2018-11-29T20:23:11.580Z,101426.39
2018-11-29T20:25:48.889Z,101433.77
2018-11-29T20:28:22.203Z,101422.66
2018-11-29T20:30:56.688Z,101422.06
2018-11-29T20:33:28.889Z,101419.95
2018-11-29T20:36:04.715Z,101414.88
2018-11-29T20:38:39.331Z,101418.33
2018-11-29T20:41:11.678Z,101411.06
2018-11-29T20:43:44.766Z,101405.11
2018-11-29T20:46:18.365Z,101403.81
2018-11-29T20:48:54.980Z,101402.22
2018-11-29T20:51:27.140Z,101396.94
2018-11-29T20:55:11.463Z,101403.37
2018-11-29T20:57:44.276Z,101398.30
2018-11-29T21:00:15.887Z,101405.03
2018-11-29T21:02:47.728Z,101399.95
2018-11-29T21:05:21.474Z,101394.95
2018-11-29T21:07:55.469Z,101394.75
2018-11-29T21:10:27.004Z,101393.33
2018-11-29T21:13:02.470Z,101393.92
2018-11-29T21:15:36.065Z,101393.09
2018-11-29T21:18:19.234Z,101383.64
2018-11-29T21:21:01.346Z,101372.84
2018-11-29T21:23:38.575Z,101381.97
2018-11-29T21:26:14.738Z,101385.82
2018-11-29T21:29:02.563Z,101375.86
2018-11-29T21:31:44.202Z,101376.17
2018-11-29T21:34:39.524Z,101372.11
2018-11-29T21:37:14.577Z,101369.81
2018-11-29T21:39:53.158Z,101365.26
2018-11-29T21:42:27.552Z,101363.19
2018-11-29T21:45:03.338Z,101361.90
2018-11-29T21:47:38.319Z,101355.07
2018-11-29T21:50:10.385Z,101351.61
2018-11-29T21:52:41.466Z,101351.85
2018-11-29T21:55:13.310Z,101346.92
2018-11-29T21:57:57.124Z,101341.13
2018-11-29T22:00:29.569Z,101343.18
2018-11-29T22:03:04.862Z,101327.11
2018-11-29T22:05:43.364Z,101326.77
2018-11-29T22:08:15.847Z,101323.45
2018-11-29T22:13:18.273Z,101323.62
2018-11-29T22:15:51.707Z,101326.95
2018-11-29T22:18:25.823Z,101320.23
2018-11-29T22:21:04.638Z,101315.77
2018-11-29T22:23:36.899Z,101307.87
2018-11-29T22:26:16.379Z,101305.89
2018-11-29T22:28:48.581Z,101299.14
2018-11-29T22:31:22.819Z,101289.69
2018-11-29T22:33:54.293Z,101301.14
2018-11-29T22:36:29.828Z,101297.06
2018-11-29T22:39:02.504Z,101302.67
2018-11-29T22:41:33.847Z,101315.25
2018-11-29T22:44:11.039Z,101335.97
2018-11-29T22:46:45.761Z,101346.77
2018-11-29T22:49:15.029Z,101347.53
2018-11-29T22:51:47.436Z,101364.64
2018-11-29T22:54:19.342Z,101371.91
2018-11-29T22:56:59.326Z,101384.06
2018-11-29T22:59:31.882Z,101391.76
2018-11-29T23:02:08.326Z,101390.61
2018-11-29T23:04:38.506Z,101388.35
2018-11-29T23:07:10.529Z,101393.96
2018-11-29T23:09:44.670Z,101386.17
2018-11-29T23:12:22.717Z,101380.25
2018-11-29T23:14:56.051Z,101241.99
2018-11-29T23:17:28.352Z,101388.56
2018-11-29T23:20:00.367Z,101389.47
2018-11-29T23:22:32.374Z,101397.36
2018-11-29T23:25:05.443Z,101389.78
2018-11-29T23:27:36.405Z,101378.66
2018-11-29T23:30:18.075Z,101368.17
2018-11-29T23:32:49.755Z,101358.53
2018-11-29T23:35:20.864Z,101361.01
2018-11-29T23:37:53.573Z,101355.99
2018-11-29T23:40:23.954Z,101340.62
2018-11-29T23:42:54.933Z,101354.64
2018-11-29T23:45:38.861Z,101344.98
2018-11-29T23:48:09.580Z,101349.81
2018-11-29T23:50:42.289Z,101340.48
2018-11-29T23:53:16.991Z,101336.44
2018-11-29T23:55:59.437Z,101329.98
2018-11-29T23:58:30.803Z,101319.60
